createdAt,value
2022-10-28T00:00:07.299Z,99063.38
2022-10-28T00:02:33.915Z,99052.66
2022-10-28T00:05:00.361Z,99057.41
2022-10-28T00:07:28.636Z,99055.94
2022-10-28T00:09:55.170Z,99049.56
2022-10-28T00:12:21.709Z,99050.03
2022-10-28T00:14:48.213Z,99051.50
2022-10-28T00:17:14.945Z,99047.19
2022-10-28T00:19:41.418Z,99042.47
2022-10-28T00:22:07.850Z,99043.28
2022-10-28T00:24:34.297Z,99042.81
2022-10-28T00:27:00.777Z,99045.69
2022-10-28T00:29:27.235Z,99045.63
2022-10-28T00:31:53.708Z,99051.13
2022-10-28T00:34:23.569Z,99052.75
2022-10-28T00:36:50.045Z,99045.97
2022-10-28T00:39:19.341Z,99055.44
2022-10-28T00:41:49.387Z,99045.53
2022-10-28T00:44:43.839Z,99049.38
2022-10-28T00:47:38.285Z,99044.75
2022-10-28T00:50:19.753Z,99038.00
2022-10-28T00:52:50.524Z,99037.69
2022-10-28T00:55:18.401Z,99034.59
2022-10-28T00:57:46.133Z,99048.78
2022-10-28T01:00:13.329Z,99050.34
2022-10-28T01:02:50.031Z,99040.03
2022-10-28T01:05:21.299Z,99048.19
2022-10-28T01:07:50.232Z,99037.97
2022-10-28T01:10:17.278Z,99047.88
2022-10-28T01:13:04.995Z,99055.69
2022-10-28T01:15:54.126Z,99040.72
2022-10-28T01:18:49.082Z,99043.06
2022-10-28T01:21:24.312Z,99046.25
2022-10-28T01:24:15.462Z,99038.00
2022-10-28T01:27:08.474Z,99044.25
2022-10-28T01:29:44.208Z,99031.31
2022-10-28T01:32:49.862Z,99036.44
2022-10-28T01:38:28.609Z,99036.84
2022-10-28T01:41:18.348Z,99032.44
2022-10-28T01:43:44.702Z,99026.13
2022-10-28T01:46:38.780Z,99027.34
2022-10-28T01:49:18.340Z,99033.63
2022-10-28T01:51:48.609Z,99029.31
2022-10-28T01:54:19.367Z,99026.97
2022-10-28T01:56:48.187Z,99032.91
2022-10-28T01:59:22.461Z,99028.19
2022-10-28T02:01:49.048Z,99028.19
2022-10-28T02:04:15.585Z,99032.91
2022-10-28T02:06:45.329Z,99033.91
2022-10-28T02:09:33.245Z,99027.69
2022-10-28T02:12:08.582Z,99026.47
2022-10-28T02:14:47.120Z,99030.06
2022-10-28T02:17:38.837Z,99026.56
2022-10-28T02:20:22.447Z,99021.06
2022-10-28T02:23:12.224Z,99021.06
2022-10-28T02:25:58.922Z,99012.44
2022-10-28T02:28:39.298Z,99009.97
2022-10-28T02:31:34.491Z,99012.03
2022-10-28T02:34:07.625Z,99006.38
2022-10-28T02:36:39.511Z,99014.63
2022-10-28T02:39:07.525Z,99009.47
2022-10-28T02:41:46.056Z,99009.72
2022-10-28T02:44:18.603Z,99002.75
2022-10-28T02:46:49.770Z,99008.94
2022-10-28T02:49:16.294Z,99015.09
2022-10-28T02:51:48.979Z,98997.16
2022-10-28T02:54:19.193Z,98998.66
2022-10-28T02:56:55.079Z,98991.56
2022-10-28T02:59:24.830Z,98997.88
2022-10-28T03:01:51.728Z,98997.88
2022-10-28T03:04:18.304Z,99005.00
2022-10-28T03:06:44.729Z,99007.84
2022-10-28T03:09:11.198Z,99003.94
2022-10-28T03:11:37.676Z,99013.75
2022-10-28T03:14:04.179Z,99017.22
2022-10-28T03:16:30.782Z,99016.56
2022-10-28T03:18:57.328Z,99003.34
2022-10-28T03:21:23.944Z,99014.28
2022-10-28T03:23:50.440Z,99015.38
2022-10-28T03:26:16.943Z,99024.16
2022-10-28T03:28:43.398Z,99019.38
2022-10-28T03:31:09.867Z,99013.06
2022-10-28T03:33:36.301Z,99012.19
2022-10-28T03:36:02.754Z,99012.25
2022-10-28T03:38:29.231Z,99012.59
2022-10-28T03:40:55.663Z,99012.28
2022-10-28T03:43:22.283Z,99014.16
2022-10-28T03:45:49.073Z,99014.88
2022-10-28T03:48:15.622Z,99020.63
2022-10-28T03:50:42.073Z,99013.72
2022-10-28T03:53:08.657Z,99014.25
2022-10-28T03:55:35.126Z,99013.03
2022-10-28T03:58:02.226Z,99016.59
2022-10-28T04:00:29.526Z,99017.00
2022-10-28T04:02:56.378Z,99018.22
2022-10-28T04:05:23.131Z,99012.28
2022-10-28T04:07:49.658Z,99014.22
2022-10-28T04:10:16.222Z,99005.16
2022-10-28T04:12:42.672Z,98992.75
2022-10-28T04:15:09.187Z,98985.25
2022-10-28T04:17:35.700Z,98988.72
2022-10-28T04:20:02.180Z,98972.16
2022-10-28T04:22:28.647Z,98976.38
2022-10-28T04:24:55.147Z,98974.25
2022-10-28T04:27:21.865Z,98984.78
2022-10-28T04:29:48.312Z,98991.56
2022-10-28T04:32:14.711Z,98988.53
2022-10-28T04:34:41.127Z,98984.22
2022-10-28T04:37:07.564Z,98991.38
2022-10-28T04:39:33.991Z,98983.75
2022-10-28T04:42:00.505Z,98983.13
2022-10-28T04:44:26.925Z,98977.63
2022-10-28T04:46:56.441Z,98978.00
2022-10-28T04:49:22.915Z,98974.69
2022-10-28T04:51:49.351Z,98977.13
2022-10-28T04:54:15.799Z,98981.06
2022-10-28T04:56:42.410Z,98978.41
2022-10-28T04:59:08.864Z,98969.72
2022-10-28T05:01:36.015Z,98973.25
2022-10-28T05:04:02.633Z,98974.97
2022-10-28T05:06:29.119Z,98979.19
2022-10-28T05:08:55.772Z,98993.38
2022-10-28T05:11:22.441Z,98993.84
2022-10-28T05:13:48.954Z,98997.50
2022-10-28T05:16:15.580Z,98987.63
2022-10-28T05:18:42.135Z,98984.41
2022-10-28T05:21:08.722Z,98978.16
2022-10-28T05:23:35.275Z,98976.69
2022-10-28T05:26:01.777Z,98955.50
2022-10-28T05:28:28.304Z,98940.22
2022-10-28T05:30:54.722Z,98931.16
2022-10-28T05:33:21.504Z,98919.50
2022-10-28T05:35:48.111Z,98924.19
2022-10-28T05:38:14.836Z,98935.13
2022-10-28T05:40:41.655Z,98931.09
2022-10-28T05:43:09.644Z,98936.91
2022-10-28T05:45:36.421Z,98944.06
2022-10-28T05:48:03.197Z,98947.91
2022-10-28T05:50:29.886Z,98947.66
2022-10-28T05:52:57.330Z,98955.44
2022-10-28T05:55:28.227Z,98957.13
2022-10-28T05:57:55.817Z,98964.44
2022-10-28T06:00:25.642Z,98959.28
2022-10-28T06:02:52.451Z,98958.84
2022-10-28T06:05:19.278Z,98963.09
2022-10-28T06:07:45.717Z,98959.56
2022-10-28T06:10:12.250Z,98963.56
2022-10-28T06:12:37.513Z,98957.09
2022-10-28T06:15:04.351Z,98960.22
2022-10-28T06:17:30.826Z,98961.78
2022-10-28T06:19:57.251Z,98964.25
2022-10-28T06:22:23.728Z,98958.75
2022-10-28T06:24:50.144Z,98972.16
2022-10-28T06:27:16.613Z,98968.56
2022-10-28T06:29:43.153Z,98967.72
2022-10-28T06:32:09.633Z,98965.69
2022-10-28T06:34:37.754Z,98966.03
2022-10-28T06:37:05.679Z,98978.16
2022-10-28T06:39:32.727Z,98978.97
2022-10-28T06:41:59.400Z,98980.56
2022-10-28T06:44:26.072Z,98977.06
2022-10-28T06:46:54.088Z,98963.72
2022-10-28T06:49:20.608Z,98968.09
2022-10-28T06:51:47.066Z,98966.53
2022-10-28T06:54:13.570Z,98961.88
2022-10-28T06:56:39.994Z,98964.63
2022-10-28T06:59:07.690Z,98955.66
2022-10-28T07:01:34.398Z,98963.97
2022-10-28T07:04:00.973Z,98959.72
2022-10-28T07:06:27.413Z,98960.47
2022-10-28T07:08:53.866Z,98960.53
2022-10-28T07:11:20.404Z,98951.91
2022-10-28T07:13:48.919Z,98954.59
2022-10-28T07:16:15.656Z,98956.19
2022-10-28T07:18:42.179Z,98962.06
2022-10-28T07:21:08.637Z,98962.91
2022-10-28T07:23:35.177Z,98956.25
2022-10-28T07:26:01.701Z,98961.34
2022-10-28T07:28:29.398Z,98955.91
2022-10-28T07:31:01.088Z,98953.53
2022-10-28T07:33:30.325Z,98963.38
2022-10-28T07:35:56.999Z,98965.78
2022-10-28T07:38:23.481Z,98972.47
2022-10-28T07:40:49.947Z,98978.06
2022-10-28T07:43:16.416Z,98990.28
2022-10-28T07:45:43.045Z,99007.28
2022-10-28T07:48:09.752Z,99017.94
2022-10-28T07:50:36.309Z,99019.94
2022-10-28T07:53:02.876Z,99026.59
2022-10-28T07:55:29.395Z,99030.13
2022-10-28T07:57:56.267Z,99023.81
2022-10-28T08:00:23.179Z,99012.00
2022-10-28T08:02:49.654Z,99009.19
2022-10-28T08:05:16.309Z,99008.03
2022-10-28T08:07:42.837Z,99009.94
2022-10-28T08:10:09.613Z,99012.69
2022-10-28T08:12:36.075Z,99003.31
2022-10-28T08:15:02.944Z,99006.06
2022-10-28T08:17:29.896Z,99004.09
2022-10-28T08:19:56.456Z,99009.59
2022-10-28T08:22:23.035Z,99016.72
2022-10-28T08:24:49.507Z,99012.00
2022-10-28T08:27:15.969Z,99012.03
2022-10-28T08:29:42.401Z,99019.56
2022-10-28T08:32:09.396Z,99024.72
2022-10-28T08:34:37.961Z,99031.00
2022-10-28T08:37:07.470Z,99028.25
2022-10-28T08:39:33.951Z,99036.91
2022-10-28T08:42:28.942Z,99034.16
2022-10-28T08:45:37.182Z,99032.56
2022-10-28T08:48:21.101Z,99028.69
2022-10-28T08:50:55.674Z,99020.03
2022-10-28T08:53:31.947Z,99017.28
2022-10-28T08:56:09.718Z,99012.19
2022-10-28T08:58:39.162Z,99018.47
2022-10-28T09:01:13.925Z,99011.41
2022-10-28T09:03:43.923Z,99006.31
2022-10-28T09:06:10.957Z,99014.59
2022-10-28T09:08:43.431Z,99019.34
2022-10-28T09:11:26.293Z,99024.09
2022-10-28T09:14:04.257Z,99027.25
2022-10-28T09:16:48.501Z,99031.22
2022-10-28T09:19:35.504Z,99041.44
2022-10-28T09:22:22.488Z,99042.25
2022-10-28T09:25:00.710Z,99043.78
2022-10-28T09:27:53.183Z,99055.59
2022-10-28T09:30:41.012Z,99066.28
2022-10-28T09:33:07.544Z,99067.44
2022-10-28T09:35:41.282Z,99058.75
2022-10-28T09:38:16.762Z,99047.31
2022-10-28T09:40:50.066Z,99049.31
2022-10-28T09:43:25.432Z,99022.50
2022-10-28T09:45:56.897Z,99007.91
2022-10-28T09:48:27.718Z,98994.53
2022-10-28T09:50:56.936Z,98978.78
2022-10-28T09:53:44.918Z,98972.84
2022-10-28T09:56:11.470Z,98967.34
2022-10-28T09:58:43.342Z,98977.59
2022-10-28T10:01:09.898Z,99009.53
2022-10-28T10:03:36.400Z,99001.97
2022-10-28T10:06:26.061Z,99024.44
2022-10-28T10:08:55.985Z,99012.97
2022-10-28T10:11:29.609Z,99015.94
2022-10-28T10:13:58.709Z,99023.66
2022-10-28T10:16:42.814Z,99004.31
2022-10-28T10:19:11.312Z,99006.78
2022-10-28T10:21:43.966Z,99003.22
2022-10-28T10:24:31.622Z,99010.59
2022-10-28T10:27:02.115Z,99011.81
2022-10-28T10:29:30.156Z,99012.56
2022-10-28T10:32:25.111Z,99021.38
2022-10-28T10:35:01.690Z,99021.78
2022-10-28T10:37:30.329Z,99034.50
2022-10-28T10:40:25.263Z,99026.53
2022-10-28T10:43:12.809Z,99023.63
2022-10-28T10:45:39.375Z,99016.09
2022-10-28T10:48:14.693Z,98996.50
2022-10-28T10:50:43.662Z,98981.63
2022-10-28T10:53:37.935Z,99002.50
2022-10-28T10:56:08.384Z,99006.97
2022-10-28T10:58:38.650Z,98978.50
2022-10-28T11:01:07.575Z,98974.88
2022-10-28T11:03:46.304Z,98962.09
2022-10-28T11:06:24.767Z,98969.63
2022-10-28T11:08:57.919Z,98996.97
2022-10-28T11:11:33.454Z,99009.19
2022-10-28T11:14:24.429Z,98996.31
2022-10-28T11:16:59.517Z,99004.56
2022-10-28T11:19:37.366Z,99004.88
2022-10-28T11:22:18.193Z,98997.53
2022-10-28T11:25:11.242Z,98989.91
2022-10-28T11:27:43.448Z,98982.00
2022-10-28T11:30:17.113Z,98974.94
2022-10-28T11:33:01.905Z,98973.50
2022-10-28T11:36:07.975Z,98970.72
2022-10-28T11:38:57.849Z,98972.44
2022-10-28T11:41:33.235Z,98984.59
2022-10-28T11:44:04.958Z,98992.09
2022-10-28T11:47:16.867Z,98983.75
2022-10-28T11:50:18.052Z,98971.78
2022-10-28T11:53:11.408Z,98966.94
2022-10-28T11:55:47.714Z,98970.38
2022-10-28T11:58:51.878Z,98961.50
2022-10-28T12:01:41.161Z,98964.75
2022-10-28T12:04:19.980Z,98949.59
2022-10-28T12:07:05.424Z,98920.66
2022-10-28T12:09:44.243Z,98889.78
2022-10-28T12:12:41.391Z,98882.56
2022-10-28T12:15:45.068Z,98874.63
2022-10-28T12:18:27.946Z,98877.03
2022-10-28T12:21:00.410Z,98889.59
2022-10-28T12:23:29.443Z,98922.56
2022-10-28T12:25:58.960Z,98931.81
2022-10-28T12:28:30.425Z,98938.34
2022-10-28T12:30:58.264Z,98934.81
2022-10-28T12:33:33.866Z,98936.00
2022-10-28T12:36:10.001Z,98932.03
2022-10-28T12:38:55.976Z,98925.66
2022-10-28T12:41:26.523Z,98936.63
2022-10-28T12:44:05.174Z,98931.00
2022-10-28T12:46:54.665Z,98927.78
2022-10-28T12:49:31.581Z,98923.53
2022-10-28T12:52:04.376Z,98914.09
2022-10-28T12:54:52.681Z,98922.50
2022-10-28T12:57:22.492Z,98907.22
2022-10-28T12:59:55.641Z,98903.06
2022-10-28T13:02:43.270Z,98900.31
2022-10-28T13:05:27.661Z,98892.03
2022-10-28T13:08:16.953Z,98898.03
2022-10-28T13:10:49.776Z,98888.97
2022-10-28T13:13:31.186Z,98900.66
2022-10-28T13:16:16.909Z,98904.22
2022-10-28T13:19:06.396Z,98900.41
2022-10-28T13:21:49.010Z,98892.94
2022-10-28T13:24:44.382Z,98905.88
2022-10-28T13:27:13.727Z,98900.28
2022-10-28T13:29:43.196Z,98917.41
2022-10-28T13:32:38.575Z,98899.34
2022-10-28T13:35:14.572Z,98903.53
2022-10-28T13:37:45.346Z,98893.75
2022-10-28T13:40:23.818Z,98898.38
2022-10-28T13:42:50.496Z,98902.56
2022-10-28T13:45:44.777Z,98893.31
2022-10-28T13:48:29.674Z,98893.25
2022-10-28T13:51:11.455Z,98894.59
2022-10-28T13:53:47.009Z,98889.19
2022-10-28T13:56:52.286Z,98886.84
2022-10-28T13:59:30.951Z,98892.91
2022-10-28T14:02:28.338Z,98881.09
2022-10-28T14:04:56.540Z,98884.72
2022-10-28T14:07:27.930Z,98879.44
2022-10-28T14:09:59.270Z,98885.34
2022-10-28T14:12:27.611Z,98881.28
2022-10-28T14:15:02.157Z,98887.63
2022-10-28T14:18:15.740Z,98890.25
2022-10-28T14:20:48.460Z,98892.97
2022-10-28T14:23:20.895Z,98897.53
2022-10-28T14:25:50.055Z,98898.97
2022-10-28T14:28:31.602Z,98899.97
2022-10-28T14:31:14.424Z,98898.31
2022-10-28T14:33:46.776Z,98905.38
2022-10-28T14:36:19.480Z,98906.16
2022-10-28T14:39:07.182Z,98911.44
2022-10-28T14:41:51.848Z,98909.22
2022-10-28T14:44:41.209Z,98902.94
2022-10-28T14:47:19.967Z,98911.22
2022-10-28T14:50:07.145Z,98911.97
2022-10-28T14:52:37.048Z,98910.63
2022-10-28T14:55:07.424Z,98913.72
2022-10-28T14:57:34.783Z,98907.44
2022-10-28T15:00:07.684Z,98908.03
2022-10-28T15:02:37.531Z,98913.47
2022-10-28T15:05:21.941Z,98913.13
2022-10-28T15:07:48.611Z,98913.66
2022-10-28T15:10:18.164Z,98912.38
2022-10-28T15:12:48.867Z,98916.28
2022-10-28T15:15:18.078Z,98910.31
2022-10-28T15:17:44.521Z,98911.78
2022-10-28T15:20:29.030Z,98903.41
2022-10-28T15:23:18.877Z,98898.75
2022-10-28T15:25:45.675Z,98910.94
2022-10-28T15:28:13.917Z,98899.19
2022-10-28T15:30:46.344Z,98895.69
2022-10-28T15:33:28.381Z,98896.25
2022-10-28T15:36:18.450Z,98891.09
2022-10-28T15:39:17.362Z,98890.31
2022-10-28T15:41:46.019Z,98890.41
2022-10-28T15:44:30.637Z,98880.78
2022-10-28T15:46:58.810Z,98883.06
2022-10-28T15:49:33.141Z,98886.41
2022-10-28T15:52:33.201Z,98879.53
2022-10-28T15:55:02.658Z,98878.81
2022-10-28T15:57:45.821Z,98890.78
2022-10-28T16:00:23.105Z,98884.38
2022-10-28T16:02:53.254Z,98886.19
2022-10-28T16:05:31.902Z,98885.69
2022-10-28T16:08:05.413Z,98884.09
2022-10-28T16:10:36.915Z,98885.69
2022-10-28T16:13:09.070Z,98878.22
2022-10-28T16:15:49.318Z,98886.09
2022-10-28T16:18:15.887Z,98883.69
2022-10-28T16:20:44.273Z,98890.97
2022-10-28T16:23:16.113Z,98887.88
2022-10-28T16:25:42.625Z,98888.66
2022-10-28T16:28:29.485Z,98893.50
2022-10-28T16:30:58.882Z,98897.44
2022-10-28T16:33:32.079Z,98894.28
2022-10-28T16:35:59.310Z,98904.75
2022-10-28T16:38:25.823Z,98903.59
2022-10-28T16:40:53.889Z,98909.16
2022-10-28T16:43:23.445Z,98902.81
2022-10-28T16:45:51.856Z,98905.63
2022-10-28T16:48:19.283Z,98899.31
2022-10-28T16:50:54.671Z,98905.63
2022-10-28T16:53:21.536Z,98913.69
2022-10-28T16:55:48.463Z,98913.00
2022-10-28T16:58:15.370Z,98925.63
2022-10-28T17:00:42.757Z,98922.47
2022-10-28T17:03:14.029Z,98921.75
2022-10-28T17:05:40.906Z,98924.94
2022-10-28T17:08:09.749Z,98924.22
2022-10-28T17:10:37.571Z,98927.41
2022-10-28T17:13:04.027Z,98926.63
2022-10-28T17:15:30.518Z,98925.91
2022-10-28T17:17:57.982Z,98926.38
2022-10-28T17:20:24.414Z,98926.84
2022-10-28T17:22:50.952Z,98938.69
2022-10-28T17:25:17.597Z,98939.88
2022-10-28T17:27:48.366Z,98932.38
2022-10-28T17:30:17.282Z,98936.75
2022-10-28T17:32:44.973Z,98932.47
2022-10-28T17:35:11.909Z,98934.06
2022-10-28T17:37:38.345Z,98944.81
2022-10-28T17:40:05.598Z,98934.91
2022-10-28T17:42:32.056Z,98941.34
2022-10-28T17:44:58.538Z,98935.41
2022-10-28T17:47:25.031Z,98938.22
2022-10-28T17:49:51.526Z,98935.84
2022-10-28T17:52:18.019Z,98931.97
2022-10-28T17:54:45.174Z,98926.59
2022-10-28T17:57:12.297Z,98940.44
2022-10-28T17:59:38.747Z,98944.38
2022-10-28T18:02:05.300Z,98957.41
2022-10-28T18:04:31.875Z,98954.28
2022-10-28T18:06:58.368Z,98952.41
2022-10-28T18:09:25.194Z,98956.78
2022-10-28T18:11:51.901Z,98959.22
2022-10-28T18:14:20.505Z,98961.59
2022-10-28T18:16:47.085Z,98953.72
2022-10-28T18:19:13.917Z,98957.25
2022-10-28T18:21:40.380Z,98954.22
2022-10-28T18:24:07.331Z,98951.50
2022-10-28T18:26:35.874Z,98953.03
2022-10-28T18:29:04.089Z,98963.41
2022-10-28T18:31:34.486Z,98967.31
2022-10-28T18:34:01.749Z,98961.00
2022-10-28T18:36:34.034Z,98970.56
2022-10-28T18:39:00.548Z,98964.72
2022-10-28T18:41:29.159Z,98960.44
2022-10-28T18:44:04.423Z,98961.63
2022-10-28T18:46:33.958Z,98959.31
2022-10-28T18:51:33.397Z,98964.09
2022-10-28T18:53:59.947Z,98959.78
2022-10-28T18:56:29.297Z,98966.84
2022-10-28T18:58:57.351Z,98976.38
2022-10-28T19:01:28.835Z,98974.03
2022-10-28T19:04:05.447Z,98964.16
2022-10-28T19:06:33.765Z,98971.66
2022-10-28T19:09:03.134Z,98976.00
2022-10-28T19:11:31.557Z,98977.97
2022-10-28T19:14:03.501Z,98976.00
2022-10-28T19:16:31.299Z,98978.81
2022-10-28T19:18:58.710Z,98974.44
2022-10-28T19:21:26.727Z,98970.91
2022-10-28T19:23:53.629Z,98968.94
2022-10-28T19:26:20.723Z,98964.59
2022-10-28T19:28:48.794Z,98968.13
2022-10-28T19:31:20.774Z,98966.94
2022-10-28T19:33:47.690Z,98964.56
2022-10-28T19:36:21.276Z,98961.00
2022-10-28T19:38:49.830Z,98958.22
2022-10-28T19:41:21.798Z,98954.25
2022-10-28T19:43:49.145Z,98952.25
2022-10-28T19:46:19.981Z,98957.00
2022-10-28T19:48:48.986Z,98956.59
2022-10-28T19:51:18.241Z,98953.47
2022-10-28T19:54:05.286Z,98959.75
2022-10-28T19:56:33.835Z,98965.25
2022-10-28T19:59:02.390Z,98964.41
2022-10-28T20:01:31.401Z,98971.59
2022-10-28T20:03:58.375Z,98965.63
2022-10-28T20:06:27.122Z,98966.84
2022-10-28T20:08:53.770Z,98966.06
2022-10-28T20:11:25.876Z,98974.75
2022-10-28T20:14:04.832Z,98978.28
2022-10-28T20:16:32.692Z,98973.91
2022-10-28T20:18:59.561Z,98983.00
2022-10-28T20:21:28.657Z,98975.50
2022-10-28T20:23:56.537Z,98978.66
2022-10-28T20:26:28.380Z,98986.97
2022-10-28T20:28:55.472Z,98989.34
2022-10-28T20:31:24.567Z,98990.50
2022-10-28T20:33:53.529Z,98989.31
2022-10-28T20:36:34.697Z,98991.34
2022-10-28T20:39:08.874Z,98994.84
2022-10-28T20:41:37.651Z,98992.94
2022-10-28T20:44:05.019Z,99001.63
2022-10-28T20:46:32.504Z,99004.00
2022-10-28T20:49:00.731Z,99004.81
2022-10-28T20:51:29.802Z,99007.59
2022-10-28T20:53:56.503Z,99010.75
2022-10-28T20:56:27.824Z,99014.34
2022-10-28T20:58:55.705Z,99009.63
2022-10-28T21:01:25.293Z,99009.28
2022-10-28T21:03:59.580Z,99008.13
2022-10-28T21:06:26.466Z,99008.94
2022-10-28T21:08:53.706Z,99007.34
2022-10-28T21:11:20.621Z,99004.19
2022-10-28T21:13:55.983Z,99002.22
2022-10-28T21:16:23.206Z,98998.66
2022-10-28T21:18:50.249Z,99005.75
2022-10-28T21:21:17.888Z,99007.31
2022-10-28T21:23:44.452Z,99008.13
2022-10-28T21:26:12.476Z,99001.78
2022-10-28T21:28:41.547Z,99004.94
2022-10-28T21:31:14.195Z,99002.59
2022-10-28T21:33:42.018Z,99012.44
2022-10-28T21:36:13.776Z,99012.50
2022-10-28T21:38:40.373Z,99016.50
2022-10-28T21:41:18.780Z,99015.34
2022-10-28T21:43:50.199Z,99020.88
2022-10-28T21:46:19.627Z,99022.47
2022-10-28T21:48:46.625Z,99016.97
2022-10-28T21:51:15.718Z,99023.28
2022-10-28T21:53:43.933Z,99021.69
2022-10-28T21:56:16.549Z,99032.34
2022-10-28T21:58:44.290Z,99020.91
2022-10-28T22:01:22.008Z,99013.81
2022-10-28T22:03:49.223Z,99019.34
2022-10-28T22:06:15.768Z,99022.91
2022-10-28T22:08:42.366Z,99018.59
2022-10-28T22:11:13.379Z,99025.66
2022-10-28T22:13:40.277Z,99029.22
2022-10-28T22:16:10.237Z,99024.88
2022-10-28T22:18:37.372Z,99028.44
2022-10-28T22:21:12.637Z,99024.50
2022-10-28T22:23:39.523Z,99029.59
2022-10-28T22:26:14.037Z,99024.47
2022-10-28T22:28:40.562Z,99031.56
2022-10-28T22:31:09.826Z,99025.63
2022-10-28T22:33:37.056Z,99028.78
2022-10-28T22:36:06.381Z,99038.22
2022-10-28T22:38:33.324Z,99039.44
2022-10-28T22:41:33.258Z,99038.69
2022-10-28T22:44:01.827Z,99041.81
2022-10-28T22:46:31.690Z,99047.34
2022-10-28T22:48:58.223Z,99057.56
2022-10-28T22:51:24.692Z,99050.88
2022-10-28T22:53:51.384Z,99059.88
2022-10-28T22:56:23.496Z,99059.47
2022-10-28T22:58:55.435Z,99058.66
2022-10-28T23:01:23.457Z,99061.81
2022-10-28T23:09:34.415Z,99052.41
2022-10-28T23:12:00.847Z,99047.25
2022-10-28T23:14:27.269Z,99053.94
2022-10-28T23:16:53.732Z,99046.84
2022-10-28T23:19:20.171Z,99056.31
2022-10-28T23:21:46.595Z,99047.63
2022-10-28T23:24:13.063Z,99046.41
2022-10-28T23:26:39.566Z,99051.97
2022-10-28T23:29:06.361Z,99055.91
2022-10-28T23:31:33.045Z,99051.16
2022-10-28T23:33:59.910Z,99055.47
2022-10-28T23:36:26.341Z,99056.63
2022-10-28T23:38:53.897Z,99054.56
2022-10-28T23:41:21.074Z,99056.53
2022-10-28T23:43:48.764Z,99056.94
2022-10-28T23:46:15.511Z,99054.19
2022-10-28T23:48:42.062Z,99063.25
2022-10-28T23:51:08.573Z,99059.28
2022-10-28T23:53:35.233Z,99056.13
2022-10-28T23:56:01.743Z,99049.47
2022-10-28T23:58:28.214Z,99050.56
